createdAt,value
2023-04-08T00:00:00.174Z,96.2
2023-04-08T00:05:00.333Z,96.8
2023-04-08T00:10:00.129Z,97.3
2023-04-08T00:15:00.238Z,97.7
2023-04-08T00:20:00.214Z,98
2023-04-08T00:25:00.204Z,98.4
2023-04-08T00:30:00.207Z,98.7
2023-04-08T00:35:00.227Z,98.4
2023-04-08T00:40:00.113Z,98.4
2023-04-08T00:45:00.166Z,98.5
2023-04-08T00:50:00.184Z,98.5
2023-04-08T00:55:00.186Z,98.6
2023-04-08T01:00:00.277Z,98.9
2023-04-08T01:05:00.173Z,98.9
2023-04-08T01:10:00.158Z,98.7
2023-04-08T01:15:00.150Z,98.6
2023-04-08T01:20:00.218Z,98.6
2023-04-08T01:25:00.197Z,98.5
2023-04-08T01:30:00.196Z,98.8
2023-04-08T01:35:00.171Z,98.4
2023-04-08T01:40:00.211Z,98.4
2023-04-08T01:45:00.145Z,98.6
2023-04-08T01:50:00.188Z,98.6
2023-04-08T01:55:00.221Z,98.3
2023-04-08T02:00:00.243Z,98.5
2023-04-08T02:05:00.189Z,98.5
2023-04-08T02:10:00.175Z,98.3
2023-04-08T02:15:00.247Z,98.4
2023-04-08T02:20:00.202Z,98.1
2023-04-08T02:25:00.219Z,98.1
2023-04-08T02:30:00.388Z,98.1
2023-04-08T02:35:00.197Z,98.2
2023-04-08T02:40:00.184Z,98.1
2023-04-08T02:45:00.183Z,97.9
2023-04-08T02:50:00.153Z,97.8
2023-04-08T02:55:00.196Z,97.9
2023-04-08T03:00:00.243Z,98
2023-04-08T03:05:00.185Z,97.8
2023-04-08T03:10:00.124Z,97.7
2023-04-08T03:15:00.163Z,97.7
2023-04-08T03:20:00.140Z,97.7
2023-04-08T03:25:00.171Z,97.6
2023-04-08T03:30:00.266Z,97.6
2023-04-08T03:35:00.194Z,98
2023-04-08T03:40:00.199Z,97.6
2023-04-08T03:45:00.215Z,97.7
2023-04-08T03:50:00.192Z,97.6
2023-04-08T03:55:00.176Z,97.6
2023-04-08T04:00:00.237Z,97.5
2023-04-08T04:05:00.378Z,97.9
2023-04-08T04:10:00.214Z,98.2
2023-04-08T04:15:00.166Z,98.2
2023-04-08T04:20:00.192Z,98.3
2023-04-08T04:25:00.164Z,98.3
2023-04-08T04:30:00.200Z,98.3
2023-04-08T04:35:00.178Z,98.7
2023-04-08T04:40:00.171Z,98.7
2023-04-08T04:45:00.137Z,98.8
2023-04-08T04:50:00.190Z,98.8
2023-04-08T04:55:00.186Z,99
2023-04-08T05:00:00.158Z,99.3
2023-04-08T05:05:00.158Z,99.6
2023-04-08T05:10:00.146Z,99.9
2023-04-08T05:15:00.166Z,99.9
2023-04-08T05:20:00.187Z,99.9
2023-04-08T05:25:00.134Z,99.9
2023-04-08T05:30:00.193Z,99.9
2023-04-08T05:35:00.163Z,99.9
2023-04-08T05:40:00.203Z,99.9
2023-04-08T05:45:00.148Z,99.9
2023-04-08T05:50:00.156Z,99.9
2023-04-08T05:55:00.211Z,99.9
2023-04-08T06:00:00.277Z,99.9
2023-04-08T06:05:00.210Z,99.9
2023-04-08T06:10:00.176Z,99.9
2023-04-08T06:15:00.144Z,99.9
2023-04-08T06:20:00.125Z,99.9
2023-04-08T06:25:00.113Z,99.9
2023-04-08T06:30:00.266Z,99.9
2023-04-08T06:35:00.267Z,99.9
2023-04-08T06:40:00.212Z,99.9
2023-04-08T06:45:00.121Z,99.9
2023-04-08T06:50:00.177Z,99.9
2023-04-08T06:55:00.181Z,99.9
2023-04-08T07:00:05.143Z,99.9
2023-04-08T07:05:00.128Z,99.9
2023-04-08T07:10:00.126Z,99.9
2023-04-08T07:15:00.197Z,99.9
2023-04-08T07:20:00.125Z,99.9
2023-04-08T07:25:00.157Z,99.9
2023-04-08T07:30:00.176Z,99.9
2023-04-08T07:35:00.166Z,99.9
2023-04-08T07:40:00.120Z,99.9
2023-04-08T07:45:00.183Z,99.9
2023-04-08T07:50:00.149Z,99.9
2023-04-08T07:55:00.192Z,99.9
2023-04-08T08:00:00.144Z,99.9
2023-04-08T08:05:00.212Z,99.9
2023-04-08T08:10:00.183Z,99.9
2023-04-08T08:15:00.182Z,99.9
2023-04-08T08:20:00.144Z,99.9
2023-04-08T08:25:00.110Z,99.9
2023-04-08T08:30:00.131Z,99.9
2023-04-08T08:35:00.127Z,99.9
2023-04-08T08:40:00.161Z,99.9
2023-04-08T08:45:00.111Z,99.9
2023-04-08T08:50:00.167Z,99.9
2023-04-08T08:55:00.192Z,99.9
2023-04-08T09:00:00.191Z,99.5
2023-04-08T09:05:00.211Z,99.4
2023-04-08T09:10:00.159Z,98.2
2023-04-08T09:15:00.241Z,97.2
2023-04-08T09:20:00.169Z,96
2023-04-08T09:25:00.132Z,95
2023-04-08T09:30:00.127Z,94.3
2023-04-08T09:35:00.143Z,94.8
2023-04-08T09:40:00.153Z,94.4
2023-04-08T09:45:00.137Z,93.9
2023-04-08T09:50:00.145Z,93.3
2023-04-08T09:55:00.143Z,92.9
2023-04-08T10:00:00.179Z,92.5
2023-04-08T10:05:00.277Z,93.2
2023-04-08T10:10:00.237Z,92.8
2023-04-08T10:15:00.152Z,93.3
2023-04-08T10:20:00.162Z,93.2
2023-04-08T10:25:00.134Z,93.3
2023-04-08T10:30:00.132Z,93.5
2023-04-08T10:35:00.184Z,93.8
2023-04-08T10:40:00.138Z,93.4
2023-04-08T10:45:00.147Z,92.2
2023-04-08T10:50:00.150Z,91.9
2023-04-08T10:55:00.177Z,91.4
2023-04-08T11:00:00.134Z,91.3
2023-04-08T11:05:00.140Z,91.5
2023-04-08T11:10:00.175Z,91.7
2023-04-08T11:15:00.182Z,91.5
2023-04-08T11:20:00.170Z,91
2023-04-08T11:25:00.143Z,90.7
2023-04-08T11:30:00.193Z,90.3
2023-04-08T11:35:00.163Z,85.6
2023-04-08T11:40:00.176Z,82.4
2023-04-08T11:45:00.163Z,80.1
2023-04-08T11:50:00.116Z,79.5
2023-04-08T11:55:00.227Z,78.5
2023-04-08T12:00:00.128Z,77.5
2023-04-08T12:05:00.189Z,76.2
2023-04-08T12:10:00.143Z,76.2
2023-04-08T12:15:00.157Z,76.2
2023-04-08T12:20:00.135Z,76.7
2023-04-08T12:25:00.152Z,76.9
2023-04-08T12:30:00.167Z,76.1
2023-04-08T12:35:00.174Z,74.6
2023-04-08T12:40:00.166Z,73.9
2023-04-08T12:45:00.213Z,73.9
2023-04-08T12:50:00.182Z,75.1
2023-04-08T12:55:00.168Z,74.9
2023-04-08T13:00:00.220Z,75.7
2023-04-08T13:05:00.163Z,75
2023-04-08T13:10:00.152Z,73.3
2023-04-08T13:15:00.211Z,72.6
2023-04-08T13:20:00.133Z,71.8
2023-04-08T13:25:00.149Z,70.4
2023-04-08T13:30:00.221Z,71
2023-04-08T13:35:00.164Z,70.7
2023-04-08T13:40:00.128Z,69
2023-04-08T13:45:00.147Z,69
2023-04-08T13:50:00.156Z,70.8
2023-04-08T13:55:00.161Z,71.7
2023-04-08T14:00:00.176Z,71.1
2023-04-08T14:05:00.134Z,71
2023-04-08T14:10:00.131Z,70.3
2023-04-08T14:15:00.176Z,70.3
2023-04-08T14:20:00.167Z,70.6
2023-04-08T14:25:00.160Z,71.8
2023-04-08T14:30:00.205Z,71.9
2023-04-08T14:35:00.224Z,72.7
2023-04-08T14:40:00.166Z,73.5
2023-04-08T14:45:00.161Z,72.9
2023-04-08T14:50:00.199Z,72.2
2023-04-08T14:55:00.173Z,71.4
2023-04-08T15:00:00.205Z,70.8
2023-04-08T15:05:00.162Z,72.4
2023-04-08T15:10:00.151Z,73.2
2023-04-08T15:15:00.192Z,74.4
2023-04-08T15:20:00.145Z,73.9
2023-04-08T15:25:00.205Z,73.7
2023-04-08T15:30:00.165Z,73.9
2023-04-08T15:35:00.206Z,74.2
2023-04-08T15:40:00.155Z,72.2
2023-04-08T15:45:00.175Z,72.7
2023-04-08T15:50:00.297Z,71.5
2023-04-08T15:55:00.196Z,71.8
2023-04-08T16:00:00.209Z,72.5
2023-04-08T16:05:00.143Z,73.2
2023-04-08T16:10:00.206Z,73.1
2023-04-08T16:15:00.177Z,72.9
2023-04-08T16:20:00.146Z,73
2023-04-08T16:25:00.130Z,72.8
2023-04-08T16:30:00.170Z,72.4
2023-04-08T16:35:00.153Z,72.5
2023-04-08T16:40:00.174Z,72.6
2023-04-08T16:45:00.122Z,73.1
2023-04-08T16:50:00.111Z,73.3
2023-04-08T16:55:00.151Z,73.9
2023-04-08T17:00:00.132Z,74
2023-04-08T17:05:00.139Z,73.8
2023-04-08T17:10:00.148Z,74.1
2023-04-08T17:15:00.196Z,73.4
2023-04-08T17:20:00.155Z,72.9
2023-04-08T17:25:00.152Z,73
2023-04-08T17:30:00.201Z,73.4
2023-04-08T17:35:00.151Z,73.9
2023-04-08T17:40:00.233Z,74.3
2023-04-08T17:45:00.179Z,74.8
2023-04-08T17:50:00.182Z,74.7
2023-04-08T17:55:00.166Z,74.6
2023-04-08T18:00:00.194Z,76.1
2023-04-08T18:05:00.142Z,77
2023-04-08T18:10:00.149Z,77.2
2023-04-08T18:15:00.151Z,77.5
2023-04-08T18:20:00.260Z,77.8
2023-04-08T18:25:00.175Z,78.5
2023-04-08T18:30:00.150Z,79
2023-04-08T18:35:00.135Z,79.3
2023-04-08T18:40:00.154Z,79.4
2023-04-08T18:45:00.178Z,79.2
2023-04-08T18:50:00.138Z,79.2
2023-04-08T18:55:00.136Z,78.9
2023-04-08T19:00:00.172Z,78.6
2023-04-08T19:05:00.128Z,78.5
2023-04-08T19:10:00.133Z,78.5
2023-04-08T19:15:00.185Z,78.4
2023-04-08T19:20:00.155Z,78.7
2023-04-08T19:25:00.132Z,79
2023-04-08T19:30:00.186Z,78.3
2023-04-08T19:35:00.130Z,79.3
2023-04-08T19:40:00.131Z,78.8
2023-04-08T19:45:00.141Z,79.2
2023-04-08T19:50:00.150Z,79.1
2023-04-08T19:55:00.211Z,79.2
2023-04-08T20:00:00.161Z,79.4
2023-04-08T20:05:00.144Z,79.5
2023-04-08T20:10:00.125Z,79.5
2023-04-08T20:15:00.168Z,79.6
2023-04-08T20:20:00.148Z,79.6
2023-04-08T20:25:00.156Z,79.8
2023-04-08T20:30:00.161Z,80.2
2023-04-08T20:35:00.182Z,80.5
2023-04-08T20:40:00.153Z,80.6
2023-04-08T20:45:00.157Z,80.9
2023-04-08T20:50:00.107Z,80.9
2023-04-08T20:55:00.218Z,81.3
2023-04-08T21:00:00.168Z,81.6
2023-04-08T21:05:00.204Z,82.3
2023-04-08T21:10:00.131Z,82.3
2023-04-08T21:15:00.172Z,82.1
2023-04-08T21:20:00.196Z,82.9
2023-04-08T21:25:00.135Z,84.5
2023-04-08T21:30:00.164Z,84.7
2023-04-08T21:35:00.148Z,85.8
2023-04-08T21:40:00.167Z,86.8
2023-04-08T21:45:00.212Z,86.8
2023-04-08T21:50:00.115Z,86.7
2023-04-08T21:55:00.161Z,86.7
2023-04-08T22:00:00.223Z,86.6
2023-04-08T22:05:00.209Z,86.8
2023-04-08T22:10:01.733Z,86.5
2023-04-08T22:15:00.176Z,86.7
2023-04-08T22:20:00.185Z,86.8
2023-04-08T22:25:00.169Z,87
2023-04-08T22:30:00.175Z,87.3
2023-04-08T22:35:00.176Z,87.5
2023-04-08T22:40:00.371Z,88.1
2023-04-08T22:45:00.180Z,88.1
2023-04-08T22:50:00.159Z,88.9
2023-04-08T22:55:00.200Z,89.3
2023-04-08T23:00:01.137Z,90.1
2023-04-08T23:05:00.119Z,90.2
2023-04-08T23:10:00.137Z,90.6
2023-04-08T23:15:00.126Z,90.9
2023-04-08T23:20:00.159Z,91
2023-04-08T23:25:00.117Z,91
2023-04-08T23:30:00.173Z,91
2023-04-08T23:35:00.162Z,91.3
2023-04-08T23:40:00.129Z,91.6
2023-04-08T23:45:00.100Z,91.7
2023-04-08T23:50:00.142Z,91.9
2023-04-08T23:55:00.180Z,91.9
